Time;durP1;ratioP1;P1;durP2;ratioP2;P2;SDS_P1;SDS_P2;PMS_P1;PMS_P2;Temp;Humidity;BMP_temperature;BMP_pressure;BME280_temperature;BME280_humidity;BME280_pressure;Samples;Min_cycle;Max_cycle;Signal;HPM_P1;HPM_P2
2023/01/01 00:00:12;;;;;;;157.93;118.03;;;11.60;34.20;;;;;;5039013;28;20829;-63
2023/01/01 00:02:39;;;;;;;150.70;113.87;;;11.60;34.30;;;;;;5036683;28;20469;-63
2023/01/01 00:05:06;;;;;;;121.77;94.70;;;11.50;34.30;;;;;;5039506;28;20459;-63
2023/01/01 00:07:33;;;;;;;133.63;97.80;;;11.50;34.40;;;;;;5033770;28;20510;-63
2023/01/01 00:12:46;;;;;;;151.83;115.17;;;11.50;34.50;;;;;;5043470;28;20449;-63
2023/01/01 00:15:12;;;;;;;142.90;107.67;;;11.50;34.50;;;;;;5039681;28;20470;-63
2023/01/01 00:17:39;;;;;;;126.53;89.33;;;11.50;34.50;;;;;;5037714;28;21195;-64
2023/01/01 00:20:07;;;;;;;107.30;78.70;;;11.50;34.60;;;;;;5035564;28;20464;-62
2023/01/01 00:22:33;;;;;;;99.87;76.07;;;11.50;34.70;;;;;;5036964;28;20473;-62
2023/01/01 00:25:01;;;;;;;101.00;78.80;;;11.50;34.60;;;;;;5034800;28;20461;-63
2023/01/01 00:27:28;;;;;;;100.60;76.27;;;11.50;34.70;;;;;;5041382;28;20477;-62
2023/01/01 00:29:55;;;;;;;99.50;74.17;;;11.60;34.60;;;;;;5038242;28;20465;-63
2023/01/01 00:32:22;;;;;;;87.43;69.37;;;11.60;34.40;;;;;;5036185;28;20478;-62
2023/01/01 00:37:27;;;;;;;90.33;67.17;;;11.60;34.90;;;;;;5002598;28;20481;-72
2023/01/01 00:39:54;;;;;;;87.03;63.53;;;11.60;34.20;;;;;;5018456;28;20565;-72
2023/01/01 00:42:22;;;;;;;82.40;61.13;;;11.70;34.30;;;;;;5020266;28;20463;-72
2023/01/01 00:44:49;;;;;;;81.87;60.57;;;11.70;34.10;;;;;;5018216;28;20473;-72
2023/01/01 00:47:16;;;;;;;78.30;59.33;;;11.70;34.10;;;;;;5015774;28;20479;-72
2023/01/01 00:49:42;;;;;;;81.70;63.63;;;11.70;34.00;;;;;;5019146;28;20496;-73
2023/01/01 00:52:09;;;;;;;83.10;61.33;;;11.70;33.90;;;;;;5017847;28;20490;-72
2023/01/01 00:54:36;;;;;;;83.20;63.37;;;11.70;33.80;;;;;;5015259;28;20463;-72
2023/01/01 00:57:03;;;;;;;87.60;66.73;;;11.70;33.80;;;;;;5020817;28;20494;-72
2023/01/01 00:59:31;;;;;;;85.07;61.60;;;11.70;33.80;;;;;;5017232;28;20834;-72
2023/01/01 01:01:57;;;;;;;84.97;61.30;;;11.70;33.70;;;;;;5015440;28;20487;-72
2023/01/01 01:04:24;;;;;;;80.83;61.90;;;11.70;33.80;;;;;;5018095;28;20474;-72
2023/01/01 01:06:51;;;;;;;86.30;63.50;;;11.70;33.70;;;;;;5017900;28;20864;-74
2023/01/01 01:09:18;;;;;;;93.37;68.43;;;11.70;33.60;;;;;;5015892;28;20861;-73
2023/01/01 01:11:45;;;;;;;90.17;65.13;;;11.70;33.60;;;;;;5021257;28;20477;-74
2023/01/01 01:14:13;;;;;;;85.23;62.57;;;11.70;33.50;;;;;;5019142;28;20498;-74
2023/01/01 01:16:41;;;;;;;76.77;59.70;;;11.70;33.60;;;;;;5021342;28;20490;-74
2023/01/01 01:19:13;;;;;;;78.20;56.77;;;11.70;33.60;;;;;;5013142;28;20467;-73
2023/01/01 01:21:40;;;;;;;80.10;56.87;;;11.70;33.50;;;;;;5021445;28;20962;-73
2023/01/01 01:24:07;;;;;;;77.80;56.93;;;11.70;33.50;;;;;;5019068;28;20462;-73
2023/01/01 01:26:35;;;;;;;73.87;55.00;;;11.80;33.50;;;;;;5019131;28;20474;-73
2023/01/01 01:29:03;;;;;;;71.30;53.90;;;11.70;33.50;;;;;;5022549;28;21039;-74
2023/01/01 01:31:31;;;;;;;72.10;55.27;;;11.80;33.60;;;;;;5024339;28;20474;-73
2023/01/01 01:33:59;;;;;;;76.00;55.43;;;11.70;33.50;;;;;;5023158;28;20502;-73
2023/01/01 01:36:27;;;;;;;77.30;54.07;;;11.70;33.50;;;;;;5019362;28;20513;-73
2023/01/01 01:38:54;;;;;;;75.00;52.70;;;11.70;33.50;;;;;;5023328;28;20462;-73
2023/01/01 01:41:22;;;;;;;76.17;52.77;;;11.70;33.50;;;;;;5020627;28;20463;-73
2023/01/01 01:43:55;;;;;;;73.30;53.90;;;11.70;33.50;;;;;;5023509;28;20888;-73
2023/01/01 01:46:29;;;;;;;76.80;56.13;;;11.70;33.50;;;;;;5022797;28;21006;-73
2023/01/01 01:48:58;;;;;;;77.57;54.17;;;11.70;33.50;;;;;;5026700;28;20560;-74
2023/01/01 01:51:29;;;;;;;75.90;51.50;;;11.70;33.50;;;;;;5019206;28;20856;-74
2023/01/01 01:54:01;;;;;;;82.00;56.40;;;11.70;33.50;;;;;;5018302;28;20479;-74
2023/01/01 01:56:31;;;;;;;65.77;49.17;;;11.70;33.40;;;;;;5020115;28;20490;-74
2023/01/01 01:58:58;;;;;;;61.97;49.07;;;11.70;33.40;;;;;;5023541;28;20456;-73
2023/01/01 02:01:26;;;;;;;58.50;44.07;;;11.70;33.40;;;;;;5020254;28;20493;-74
2023/01/01 02:03:57;;;;;;;64.80;45.63;;;11.60;33.20;;;;;;5018649;28;20459;-74
2023/01/01 02:06:27;;;;;;;63.13;46.07;;;11.60;33.20;;;;;;5025018;28;20482;-74
2023/01/01 02:08:56;;;;;;;64.30;47.53;;;11.70;33.30;;;;;;5019128;28;20891;-73
2023/01/01 02:11:23;;;;;;;73.97;53.70;;;11.60;33.30;;;;;;5017150;28;20463;-74
2023/01/01 02:13:50;;;;;;;62.20;47.97;;;11.70;33.20;;;;;;5019223;28;20467;-74
2023/01/01 02:16:22;;;;;;;69.50;50.70;;;11.60;33.10;;;;;;5019854;28;21275;-74
2023/01/01 02:18:57;;;;;;;65.40;48.90;;;11.60;33.10;;;;;;5024245;28;20458;-73
2023/01/01 02:21:30;;;;;;;56.60;43.50;;;11.60;33.10;;;;;;5022572;28;20463;-73
2023/01/01 02:24:35;;;;;;;62.53;46.00;;;11.60;33.10;;;;;;5018443;28;20541;-72
2023/01/01 02:27:06;;;;;;;60.80;46.37;;;11.60;33.40;;;;;;5019095;28;20486;-72
2023/01/01 02:29:40;;;;;;;69.60;51.27;;;11.50;33.20;;;;;;5019159;28;20479;-72
2023/01/01 02:32:10;;;;;;;74.73;52.57;;;11.50;33.20;;;;;;5022561;28;20605;-73
2023/01/01 02:34:41;;;;;;;72.47;56.20;;;11.50;33.20;;;;;;5023381;28;20455;-72
2023/01/01 02:37:12;;;;;;;69.80;52.30;;;11.40;33.20;;;;;;5022198;28;20499;-72
2023/01/01 02:39:44;;;;;;;66.10;53.07;;;11.40;33.10;;;;;;5018453;28;20959;-72
2023/01/01 02:42:12;;;;;;;68.07;51.87;;;11.40;33.20;;;;;;5020097;28;20463;-72
2023/01/01 02:44:44;;;;;;;68.53;50.93;;;11.30;33.20;;;;;;5019980;28;20995;-73
2023/01/01 02:47:15;;;;;;;65.73;47.50;;;11.30;33.50;;;;;;5022419;28;20487;-72
2023/01/01 02:49:55;;;;;;;67.00;48.80;;;11.30;33.50;;;;;;5017412;28;20493;-72
2023/01/01 02:52:48;;;;;;;64.80;46.33;;;11.30;33.60;;;;;;5019758;28;20458;-73
2023/01/01 02:55:27;;;;;;;63.17;47.13;;;11.30;33.80;;;;;;5014161;28;21054;-73
2023/01/01 03:00:17;;;;;;;56.77;42.37;;;11.30;33.80;;;;;;5021014;28;20470;-72
2023/01/01 03:00:54;;;;;;;62.57;45.50;;;11.30;34.00;;;;;;5016555;28;21094;-72
2023/01/01 03:03:27;;;;;;;53.63;38.57;;;11.30;33.90;;;;;;5022073;28;20459;-72
2023/01/01 03:08:49;;;;;;;51.93;40.17;;;11.20;34.10;;;;;;5026881;28;20490;-71
2023/01/01 03:11:19;;;;;;;51.53;37.23;;;11.20;34.10;;;;;;5018335;28;20466;-72
2023/01/01 03:13:55;;;;;;;54.60;39.60;;;11.20;34.20;;;;;;5023942;28;20486;-73
2023/01/01 03:16:28;;;;;;;51.70;34.70;;;11.20;34.30;;;;;;5021605;28;20478;-73
2023/01/01 03:19:12;;;;;;;53.20;36.83;;;11.20;34.30;;;;;;5021475;28;20455;-72
2023/01/01 03:21:43;;;;;;;46.20;32.30;;;11.20;34.30;;;;;;5021284;28;20459;-73
2023/01/01 03:24:16;;;;;;;48.67;34.93;;;11.20;34.20;;;;;;5020041;28;20532;-72
2023/01/01 03:26:45;;;;;;;44.23;31.00;;;11.20;34.30;;;;;;5021346;28;20483;-73
2023/01/01 03:29:13;;;;;;;46.30;33.17;;;11.20;34.20;;;;;;5021576;28;20475;-73
2023/01/01 03:31:44;;;;;;;54.00;34.40;;;11.20;34.10;;;;;;5023331;28;20502;-73
2023/01/01 03:34:16;;;;;;;49.73;36.37;;;11.20;34.00;;;;;;5019745;28;20475;-72
2023/01/01 03:36:47;;;;;;;50.90;35.20;;;11.20;34.10;;;;;;5014173;28;20525;-73
2023/01/01 03:39:18;;;;;;;50.63;36.90;;;11.20;34.00;;;;;;5020884;28;20462;-72
2023/01/01 03:41:49;;;;;;;45.93;33.87;;;11.10;34.00;;;;;;5018128;28;20959;-72
2023/01/01 03:44:22;;;;;;;46.87;31.40;;;11.20;34.00;;;;;;5018927;28;20521;-73
2023/01/01 03:46:50;;;;;;;41.67;29.93;;;11.20;34.10;;;;;;5019178;28;20491;-72
2023/01/01 03:49:17;;;;;;;38.67;29.50;;;11.20;34.00;;;;;;5015276;28;20483;-72
2023/01/01 03:52:23;;;;;;;41.67;28.90;;;11.20;33.90;;;;;;5025293;28;20509;-71
2023/01/01 03:54:56;;;;;;;37.97;26.40;;;11.10;34.20;;;;;;5005001;28;20828;-70
2023/01/01 03:57:26;;;;;;;42.33;28.10;;;11.20;34.20;;;;;;5022659;28;20459;-71
2023/01/01 04:00:02;;;;;;;41.97;29.40;;;11.20;34.20;;;;;;5018881;28;20475;-70
2023/01/01 04:02:40;;;;;;;50.63;27.73;;;11.20;34.30;;;;;;5022925;28;20482;-71
2023/01/01 04:05:09;;;;;;;36.77;28.50;;;11.10;34.40;;;;;;5018110;28;23186;-71
2023/01/01 04:07:37;;;;;;;39.63;25.60;;;11.20;34.10;;;;;;5022529;28;20565;-71
2023/01/01 04:10:15;;;;;;;37.57;26.10;;;11.10;34.30;;;;;;5014016;28;20484;-71
2023/01/01 04:12:44;;;;;;;34.03;26.20;;;11.10;34.50;;;;;;5021509;28;20497;-71
2023/01/01 04:15:11;;;;;;;40.20;28.40;;;11.00;34.50;;;;;;5019271;28;21021;-71
2023/01/01 04:17:39;;;;;;;38.27;25.93;;;11.00;34.60;;;;;;5020835;28;20463;-71
2023/01/01 04:20:08;;;;;;;35.90;26.43;;;11.00;34.60;;;;;;5019095;28;20461;-71
2023/01/01 04:22:34;;;;;;;39.50;26.90;;;10.90;34.70;;;;;;5023526;28;20463;-70
2023/01/01 04:25:01;;;;;;;37.17;26.03;;;10.90;35.30;;;;;;5012521;28;20963;-71
2023/01/01 04:27:28;;;;;;;37.80;27.30;;;10.90;34.70;;;;;;5015645;28;20526;-71
2023/01/01 04:29:55;;;;;;;40.23;27.27;;;10.90;34.80;;;;;;5020133;28;20845;-71
2023/01/01 04:32:22;;;;;;;42.97;27.20;;;10.80;34.70;;;;;;5013501;28;20484;-71
2023/01/01 04:34:50;;;;;;;42.07;26.63;;;10.80;34.70;;;;;;5018378;28;20489;-71
2023/01/01 04:37:16;;;;;;;36.40;26.23;;;10.80;35.00;;;;;;5019478;28;20482;-71
2023/01/01 04:39:43;;;;;;;39.60;26.37;;;10.80;34.80;;;;;;5017455;28;20463;-71
2023/01/01 04:42:10;;;;;;;37.13;26.83;;;10.70;34.90;;;;;;5019682;28;20951;-71
2023/01/01 04:44:36;;;;;;;35.37;25.57;;;10.70;34.90;;;;;;5022463;28;21017;-71
2023/01/01 04:47:03;;;;;;;38.63;25.10;;;10.70;34.90;;;;;;5021509;28;20483;-70
2023/01/01 04:49:30;;;;;;;35.67;25.37;;;10.70;35.00;;;;;;5019610;28;20479;-70
2023/01/01 04:51:58;;;;;;;35.57;24.37;;;10.60;35.00;;;;;;5019551;28;20466;-70
2023/01/01 04:54:25;;;;;;;40.70;28.43;;;10.50;35.20;;;;;;5022368;28;20466;-71
2023/01/01 04:56:52;;;;;;;42.60;28.40;;;10.50;35.30;;;;;;5019604;28;21025;-71
2023/01/01 04:59:19;;;;;;;39.90;26.57;;;10.50;35.40;;;;;;5024266;28;20451;-72
2023/01/01 05:01:45;;;;;;;41.53;26.20;;;10.50;36.10;;;;;;5022838;28;20490;-70
2023/01/01 05:04:14;;;;;;;39.03;25.30;;;10.50;36.00;;;;;;5019758;28;20463;-71
2023/01/01 05:06:40;;;;;;;41.60;26.33;;;10.50;36.30;;;;;;5024563;28;20486;-71
2023/01/01 05:09:11;;;;;;;37.87;26.73;;;10.50;36.50;;;;;;5025474;28;20491;-71
2023/01/01 05:11:37;;;;;;;39.60;26.40;;;10.50;36.50;;;;;;5024509;28;20471;-72
2023/01/01 05:14:05;;;;;;;43.87;27.77;;;10.60;36.40;;;;;;5021074;28;20474;-71
2023/01/01 05:16:33;;;;;;;36.70;25.47;;;10.60;36.40;;;;;;5026605;28;20491;-71
2023/01/01 05:19:00;;;;;;;36.83;24.97;;;10.70;36.30;;;;;;5024166;28;20478;-72
2023/01/01 05:21:30;;;;;;;36.33;25.40;;;10.70;36.20;;;;;;5020953;28;20466;-71
2023/01/01 05:23:59;;;;;;;37.50;26.43;;;10.70;36.10;;;;;;5026909;28;20469;-71
2023/01/01 05:26:29;;;;;;;34.27;25.50;;;10.70;36.10;;;;;;5022013;28;20508;-71
2023/01/01 05:28:56;;;;;;;32.27;23.17;;;10.70;36.10;;;;;;5022592;28;20890;-70
2023/01/01 05:31:25;;;;;;;41.50;24.43;;;10.70;36.00;;;;;;5021786;28;20492;-73
2023/01/01 05:33:53;;;;;;;31.80;21.60;;;10.80;35.80;;;;;;5020888;28;20466;-71
2023/01/01 05:36:23;;;;;;;33.07;21.20;;;10.80;35.80;;;;;;5024310;28;20490;-70
2023/01/01 05:38:51;;;;;;;35.00;23.70;;;10.80;35.80;;;;;;5024365;28;20463;-71
2023/01/01 05:41:19;;;;;;;30.47;20.50;;;10.80;35.60;;;;;;5022788;28;20465;-71
2023/01/01 05:43:47;;;;;;;31.37;20.23;;;10.80;35.80;;;;;;5024579;28;20471;-71
2023/01/01 05:46:16;;;;;;;33.50;21.33;;;10.70;36.00;;;;;;5021024;28;20492;-71
2023/01/01 05:48:43;;;;;;;29.97;21.23;;;10.70;36.10;;;;;;5025771;28;20477;-71
2023/01/01 05:51:11;;;;;;;28.37;20.47;;;10.70;36.00;;;;;;5023493;28;20470;-71
2023/01/01 05:53:38;;;;;;;30.60;19.83;;;10.60;35.50;;;;;;5020727;28;20486;-71
2023/01/01 05:56:06;;;;;;;32.10;20.60;;;10.50;35.20;;;;;;5020544;28;21013;-71
2023/01/01 05:58:34;;;;;;;29.10;19.90;;;10.50;35.30;;;;;;5023270;28;20454;-70
2023/01/01 06:01:07;;;;;;;30.37;20.90;;;10.40;35.30;;;;;;5020894;28;20479;-71
2023/01/01 06:03:34;;;;;;;31.33;21.17;;;10.40;35.50;;;;;;5026061;28;20501;-71
2023/01/01 06:06:04;;;;;;;30.83;20.30;;;10.40;35.40;;;;;;5021962;28;20840;-71
2023/01/01 06:08:31;;;;;;;30.97;21.93;;;10.30;35.40;;;;;;5020197;28;20451;-71
2023/01/01 06:10:59;;;;;;;31.90;22.00;;;10.30;35.30;;;;;;5025668;28;21138;-71
2023/01/01 06:13:26;;;;;;;29.07;19.67;;;10.30;35.60;;;;;;5023317;28;20467;-71
2023/01/01 06:15:54;;;;;;;31.93;21.17;;;10.30;36.00;;;;;;5022736;28;20486;-71
2023/01/01 06:18:22;;;;;;;27.80;20.60;;;10.30;36.20;;;;;;5023566;28;20455;-71
2023/01/01 06:20:49;;;;;;;31.10;19.97;;;10.30;36.40;;;;;;5021429;28;20478;-71
2023/01/01 06:23:16;;;;;;;30.30;19.73;;;10.20;36.80;;;;;;5025438;28;20478;-71
2023/01/01 06:25:43;;;;;;;31.20;20.00;;;10.20;37.00;;;;;;5021977;28;20883;-71
2023/01/01 06:28:10;;;;;;;30.10;19.80;;;10.20;37.20;;;;;;5019870;28;20466;-71
2023/01/01 06:30:37;;;;;;;30.60;19.63;;;10.20;37.30;;;;;;5024665;28;20478;-71
2023/01/01 06:33:04;;;;;;;31.97;19.73;;;10.20;37.40;;;;;;5025713;28;20466;-71
2023/01/01 06:35:32;;;;;;;28.80;18.50;;;10.20;37.50;;;;;;5022453;28;20487;-70
2023/01/01 06:37:59;;;;;;;26.83;19.57;;;10.20;37.60;;;;;;5025072;28;20466;-71
2023/01/01 06:40:26;;;;;;;30.23;19.97;;;10.20;37.80;;;;;;5051731;22;20486;-63
2023/01/01 06:42:53;;;;;;;31.67;20.30;;;10.10;38.00;;;;;;5064130;28;20494;-63
2023/01/01 06:45:20;;;;;;;29.40;19.40;;;10.10;38.10;;;;;;5062157;28;20464;-64
2023/01/01 06:47:46;;;;;;;35.80;22.20;;;10.10;38.40;;;;;;5067600;28;20468;-63
2023/01/01 06:50:13;;;;;;;28.53;18.30;;;10.10;38.50;;;;;;5059960;28;20476;-64
2023/01/01 06:52:41;;;;;;;29.37;20.30;;;10.10;38.40;;;;;;5067184;28;20461;-62
2023/01/01 06:55:08;;;;;;;28.13;17.30;;;10.10;38.40;;;;;;5059119;28;20464;-62
2023/01/01 06:57:35;;;;;;;28.10;18.87;;;10.10;38.30;;;;;;5057194;28;20491;-63
2023/01/01 07:00:02;;;;;;;27.50;17.20;;;10.10;38.30;;;;;;5063221;28;21184;-63
2023/01/01 07:02:29;;;;;;;30.47;18.63;;;10.10;38.90;;;;;;5058244;28;20477;-63
2023/01/01 07:04:55;;;;;;;22.30;15.57;;;10.10;38.10;;;;;;5060242;28;20546;-63
2023/01/01 07:07:22;;;;;;;25.27;16.83;;;10.20;38.00;;;;;;5065292;28;20461;-63
2023/01/01 07:09:50;;;;;;;27.30;17.90;;;10.20;37.90;;;;;;5060446;28;20480;-63
2023/01/01 07:12:17;;;;;;;29.50;18.17;;;10.20;37.80;;;;;;5062100;28;20464;-63
2023/01/01 07:14:44;;;;;;;30.10;19.90;;;10.20;37.70;;;;;;5064532;28;20808;-62
2023/01/01 07:17:10;;;;;;;29.83;18.30;;;10.20;37.60;;;;;;5060490;28;20454;-63
2023/01/01 07:19:37;;;;;;;28.77;18.10;;;10.30;37.60;;;;;;5064745;28;20477;-62
2023/01/01 07:22:04;;;;;;;33.07;20.20;;;10.30;37.70;;;;;;5058913;28;20477;-62
2023/01/01 07:24:31;;;;;;;31.67;20.50;;;10.40;37.50;;;;;;5058714;28;20480;-62
2023/01/01 07:26:59;;;;;;;30.93;19.40;;;10.40;37.40;;;;;;5064017;28;20480;-62
2023/01/01 07:29:25;;;;;;;32.53;19.33;;;10.40;37.50;;;;;;5062142;28;20472;-62
2023/01/01 07:31:52;;;;;;;26.23;18.20;;;10.40;37.40;;;;;;5061388;28;20465;-62
2023/01/01 07:34:20;;;;;;;26.97;17.20;;;10.50;37.50;;;;;;5060781;28;20471;-62
2023/01/01 07:36:47;;;;;;;26.60;16.50;;;10.50;37.30;;;;;;5062191;28;20489;-63
2023/01/01 07:39:13;;;;;;;26.10;16.93;;;10.50;37.30;;;;;;5064168;28;20909;-63
2023/01/01 07:41:40;;;;;;;25.97;17.33;;;10.50;37.80;;;;;;5060823;28;22366;-63
2023/01/01 07:44:08;;;;;;;26.77;17.97;;;10.50;37.20;;;;;;5060530;28;20453;-63
2023/01/01 07:46:36;;;;;;;21.53;14.83;;;10.60;37.20;;;;;;5064052;28;20461;-63
2023/01/01 07:49:03;;;;;;;24.27;15.37;;;10.70;37.20;;;;;;5059319;28;20477;-63
2023/01/01 07:51:30;;;;;;;22.23;16.50;;;10.80;37.00;;;;;;5058511;28;20491;-63
2023/01/01 07:53:57;;;;;;;20.53;15.37;;;11.00;36.80;;;;;;5060168;28;20458;-63
2023/01/01 07:56:23;;;;;;;23.30;15.43;;;11.10;36.70;;;;;;5060322;28;20472;-63
2023/01/01 07:58:50;;;;;;;22.73;14.93;;;11.40;36.30;;;;;;5061262;28;20464;-63
2023/01/01 08:01:18;;;;;;;24.93;15.73;;;11.60;35.70;;;;;;5056393;28;20485;-63
2023/01/01 08:03:49;;;;;;;25.30;15.57;;;11.80;35.20;;;;;;5061046;28;21233;-62
2023/01/01 08:06:16;;;;;;;23.40;15.40;;;12.10;34.40;;;;;;5057171;28;20467;-63
2023/01/01 08:08:43;;;;;;;24.67;15.20;;;12.40;33.80;;;;;;5058648;28;20894;-63
2023/01/01 08:11:10;;;;;;;21.43;14.80;;;12.80;32.40;;;;;;5058851;28;20998;-63
2023/01/01 08:13:37;;;;;;;20.30;14.50;;;13.10;31.30;;;;;;5064678;28;20842;-62
2023/01/01 08:16:04;;;;;;;21.30;14.17;;;13.50;30.30;;;;;;5063758;28;20465;-62
2023/01/01 08:18:32;;;;;;;17.93;11.67;;;13.70;29.20;;;;;;5057491;28;20457;-62
2023/01/01 08:20:59;;;;;;;15.53;10.80;;;14.10;27.90;;;;;;5058391;28;20855;-62
2023/01/01 08:23:26;;;;;;;19.17;11.10;;;14.60;26.90;;;;;;5065382;28;20461;-63
2023/01/01 08:25:53;;;;;;;17.80;10.47;;;14.90;25.10;;;;;;5055822;28;20461;-63
2023/01/01 08:28:19;;;;;;;16.47;10.90;;;15.20;24.70;;;;;;5064273;28;20492;-62
2023/01/01 08:30:46;;;;;;;15.97;10.10;;;15.40;24.10;;;;;;5058247;28;20996;-62
2023/01/01 08:33:13;;;;;;;15.80;9.67;;;15.80;22.90;;;;;;5058229;28;20464;-63
2023/01/01 08:35:42;;;;;;;11.43;8.00;;;16.10;21.30;;;;;;5057425;28;20464;-65
2023/01/01 08:38:11;;;;;;;14.73;9.17;;;16.40;20.00;;;;;;5050624;28;20960;-61
2023/01/01 08:40:38;;;;;;;11.30;7.90;;;16.60;19.70;;;;;;5054068;28;20480;-62
2023/01/01 08:43:06;;;;;;;11.80;7.90;;;16.90;19.40;;;;;;5061972;28;20467;-63
2023/01/01 08:45:32;;;;;;;11.07;8.73;;;17.30;18.70;;;;;;5059646;28;20998;-61
2023/01/01 08:47:59;;;;;;;12.03;7.53;;;17.60;17.80;;;;;;5063764;28;20460;-62
2023/01/01 08:50:26;;;;;;;21.60;13.40;;;17.90;17.30;;;;;;5065806;28;20496;-62
2023/01/01 08:52:54;;;;;;;10.90;7.13;;;18.10;16.60;;;;;;5061715;28;20457;-62
2023/01/01 08:55:21;;;;;;;11.43;6.90;;;18.20;16.20;;;;;;5059070;28;21524;-63
2023/01/01 08:57:47;;;;;;;10.30;6.47;;;18.20;15.80;;;;;;5051061;28;20465;-62
2023/01/01 09:00:15;;;;;;;10.57;7.30;;;18.20;16.00;;;;;;5053518;28;20540;-66
2023/01/01 09:02:42;;;;;;;13.03;8.93;;;18.50;15.70;;;;;;5058986;28;20465;-64
2023/01/01 09:05:10;;;;;;;11.37;6.93;;;18.80;15.40;;;;;;5062767;28;21201;-62
2023/01/01 09:07:37;;;;;;;12.00;8.27;;;19.00;14.60;;;;;;5061653;28;20800;-62
2023/01/01 09:10:06;;;;;;;10.20;6.80;;;19.20;14.00;;;;;;5060052;28;20484;-62
2023/01/01 09:12:33;;;;;;;11.47;6.90;;;19.30;13.70;;;;;;5061881;28;20464;-63
2023/01/01 09:14:59;;;;;;;10.07;6.93;;;19.50;13.80;;;;;;5058057;28;20472;-63
2023/01/01 09:17:26;;;;;;;13.23;7.90;;;19.60;13.40;;;;;;5062834;28;21025;-63
2023/01/01 09:19:53;;;;;;;11.00;6.80;;;19.60;13.30;;;;;;5060889;28;20483;-63
2023/01/01 09:22:20;;;;;;;10.60;6.60;;;19.70;13.10;;;;;;5060696;28;20457;-63
2023/01/01 09:24:46;;;;;;;10.30;6.60;;;19.80;12.80;;;;;;5058221;28;20462;-63
2023/01/01 09:27:14;;;;;;;8.10;5.87;;;19.80;12.30;;;;;;5061099;28;20453;-63
2023/01/01 09:29:41;;;;;;;12.80;6.33;;;19.80;12.30;;;;;;5054139;28;20490;-63
2023/01/01 09:32:08;;;;;;;10.50;6.53;;;19.80;12.30;;;;;;5060887;28;20492;-63
2023/01/01 09:34:34;;;;;;;9.77;6.27;;;19.80;12.20;;;;;;5058931;28;20601;-62
2023/01/01 09:37:01;;;;;;;10.87;6.03;;;19.70;12.30;;;;;;5056654;28;20460;-65
2023/01/01 09:39:29;;;;;;;10.13;6.60;;;19.60;12.50;;;;;;5063265;28;20457;-63
2023/01/01 09:42:13;;;;;;;12.37;6.57;;;19.50;12.80;;;;;;5061110;28;20453;-62
2023/01/01 09:45:05;;;;;;;9.00;6.00;;;19.30;13.20;;;;;;5062843;28;20468;-62
2023/01/01 09:47:37;;;;;;;10.13;6.73;;;19.10;13.70;;;;;;5061068;28;20467;-61
2023/01/01 09:50:08;;;;;;;19.37;10.60;;;19.00;13.80;;;;;;5063827;28;20481;-61
2023/01/01 09:52:40;;;;;;;10.23;6.63;;;18.80;14.00;;;;;;5066545;28;21022;-61
2023/01/01 09:55:18;;;;;;;9.63;6.43;;;18.70;14.40;;;;;;5058151;28;20453;-61
2023/01/01 09:57:45;;;;;;;9.87;6.70;;;18.70;14.60;;;;;;5062092;28;20905;-64
2023/01/01 10:00:18;;;;;;;14.03;8.43;;;18.60;14.80;;;;;;5063319;28;20480;-64
2023/01/01 10:03:17;;;;;;;10.00;6.33;;;18.60;14.90;;;;;;5066264;28;20483;-63
2023/01/01 10:05:53;;;;;;;9.80;6.67;;;18.60;15.50;;;;;;5066026;28;20473;-62
2023/01/01 10:08:29;;;;;;;10.70;6.80;;;18.60;14.90;;;;;;5065847;28;20457;-63
2023/01/01 10:11:08;;;;;;;8.70;5.93;;;18.70;15.10;;;;;;5058369;28;20485;-65
2023/01/01 10:13:40;;;;;;;9.20;6.30;;;18.60;15.30;;;;;;5064982;28;20526;-63
2023/01/01 10:16:17;;;;;;;8.47;5.40;;;18.60;15.30;;;;;;5060050;28;20470;-61
2023/01/01 10:18:46;;;;;;;9.50;6.50;;;18.60;15.20;;;;;;5064761;28;20521;-62
2023/01/01 10:21:17;;;;;;;12.30;7.90;;;18.70;15.20;;;;;;5059014;28;20477;-63
2023/01/01 10:23:48;;;;;;;8.87;5.47;;;18.80;14.90;;;;;;5063975;28;20882;-62
2023/01/01 10:26:17;;;;;;;9.70;5.10;;;18.80;14.90;;;;;;5064195;28;20457;-63
2023/01/01 10:28:51;;;;;;;9.27;5.70;;;18.90;15.10;;;;;;5068366;28;20973;-63
2023/01/01 10:31:30;;;;;;;9.77;5.77;;;19.00;15.10;;;;;;5063869;28;20492;-62
2023/01/01 10:33:57;;;;;;;11.27;6.63;;;19.10;15.00;;;;;;5062180;28;20484;-63
2023/01/01 10:36:25;;;;;;;9.40;4.70;;;19.30;14.70;;;;;;5061798;28;20457;-61
2023/01/01 10:38:52;;;;;;;8.67;5.40;;;19.60;14.30;;;;;;5065296;28;20453;-62
2023/01/01 10:41:19;;;;;;;7.47;5.00;;;19.90;13.80;;;;;;5064900;28;20485;-62
2023/01/01 10:43:47;;;;;;;9.47;5.30;;;20.10;13.50;;;;;;5064812;28;20457;-61
2023/01/01 10:46:18;;;;;;;10.27;5.70;;;20.40;12.90;;;;;;5065112;28;20472;-61
2023/01/01 10:49:04;;;;;;;8.27;5.63;;;20.70;12.10;;;;;;5065816;28;20465;-60
2023/01/01 10:51:31;;;;;;;9.37;5.37;;;21.20;10.90;;;;;;5064244;28;20469;-61
2023/01/01 10:53:58;;;;;;;7.90;4.87;;;21.50;10.30;;;;;;5063698;28;20461;-63
2023/01/01 10:56:27;;;;;;;8.37;4.63;;;21.80;9.60;;;;;;5060113;28;20465;-63
2023/01/01 10:58:55;;;;;;;28.90;16.57;;;22.00;9.40;;;;;;5058760;28;20842;-61
2023/01/01 11:01:24;;;;;;;14.47;6.00;;;22.00;8.90;;;;;;5058608;28;20469;-65
2023/01/01 11:04:00;;;;;;;8.47;4.80;;;22.00;9.00;;;;;;5059712;28;20464;-62
2023/01/01 11:06:29;;;;;;;8.47;4.67;;;21.70;9.10;;;;;;5060705;28;20536;-62
2023/01/01 11:08:58;;;;;;;7.00;4.60;;;21.50;9.70;;;;;;5061822;28;20793;-67
2023/01/01 11:11:29;;;;;;;7.43;4.70;;;21.40;9.80;;;;;;5061588;28;20485;-66
2023/01/01 11:13:58;;;;;;;8.27;5.27;;;21.50;10.00;;;;;;5060269;28;20916;-66
2023/01/01 11:16:26;;;;;;;11.13;5.80;;;22.00;9.60;;;;;;5062501;28;20453;-68
2023/01/01 11:19:02;;;;;;;9.03;5.20;;;22.40;8.80;;;;;;5058798;28;20457;-68
2023/01/01 11:21:29;;;;;;;9.17;5.30;;;22.80;8.30;;;;;;5062199;28;20482;-66
2023/01/01 11:24:16;;;;;;;8.50;4.60;;;23.10;7.70;;;;;;5061964;28;20610;-62
2023/01/01 11:26:43;;;;;;;8.60;4.67;;;23.40;7.60;;;;;;5057983;28;20462;-61
2023/01/01 11:29:21;;;;;;;8.00;4.20;;;23.50;7.10;;;;;;5058884;28;20462;-62
2023/01/01 11:31:48;;;;;;;8.93;4.73;;;23.60;7.10;;;;;;5059705;28;20483;-61
2023/01/01 11:34:27;;;;;;;7.13;4.63;;;24.20;6.90;;;;;;5057923;28;20461;-62
2023/01/01 11:37:11;;;;;;;8.50;4.73;;;24.70;6.10;;;;;;5062128;28;20460;-61
2023/01/01 11:39:41;;;;;;;7.30;5.00;;;24.80;5.50;;;;;;5061011;28;20472;-62
2023/01/01 11:42:08;;;;;;;8.70;4.40;;;24.90;4.50;;;;;;5054681;28;20465;-63
2023/01/01 11:44:37;;;;;;;7.27;4.17;;;25.20;4.70;;;;;;5062756;28;20818;-62
2023/01/01 11:47:06;;;;;;;8.70;4.37;;;25.10;4.60;;;;;;5057462;28;20548;-62
2023/01/01 11:49:35;;;;;;;8.30;4.30;;;25.20;4.20;;;;;;5056341;28;20492;-62
2023/01/01 11:52:29;;;;;;;8.80;3.93;;;24.90;4.40;;;;;;5064178;28;20573;-61
2023/01/01 11:55:03;;;;;;;8.73;3.60;;;24.40;5.30;;;;;;5056350;28;20548;-61
2023/01/01 11:57:30;;;;;;;8.20;4.10;;;24.80;5.10;;;;;;5064070;28;20453;-63
2023/01/01 12:00:02;;;;;;;12.10;4.77;;;25.10;5.10;;;;;;5057957;28;21164;-62
2023/01/01 12:02:35;;;;;;;7.40;4.63;;;25.50;4.70;;;;;;5061174;28;20474;-62
2023/01/01 12:05:10;;;;;;;8.20;4.33;;;25.30;4.50;;;;;;5058895;28;20483;-62
2023/01/01 12:07:38;;;;;;;7.17;4.13;;;24.70;5.30;;;;;;5058478;28;20830;-62
2023/01/01 12:10:17;;;;;;;14.93;9.77;;;24.20;5.50;;;;;;5057774;28;20488;-63
2023/01/01 12:12:48;;;;;;;9.47;5.67;;;23.70;6.00;;;;;;5057162;28;20480;-63
2023/01/01 12:15:18;;;;;;;7.73;4.43;;;23.20;6.80;;;;;;5061398;28;20957;-65
2023/01/01 12:17:51;;;;;;;7.80;4.43;;;23.00;7.50;;;;;;5062666;28;20979;-66
2023/01/01 12:20:25;;;;;;;7.03;4.33;;;23.00;8.00;;;;;;5063402;28;20481;-61
2023/01/01 12:22:55;;;;;;;6.47;4.00;;;23.40;7.70;;;;;;5062997;28;20453;-61
2023/01/01 12:25:22;;;;;;;7.67;4.23;;;23.50;7.10;;;;;;5060006;28;20469;-62
2023/01/01 12:28:02;;;;;;;7.30;4.20;;;23.50;7.30;;;;;;5054001;28;20465;-63
2023/01/01 12:30:34;;;;;;;7.37;4.40;;;23.40;7.60;;;;;;5061640;28;21176;-64
2023/01/01 12:33:26;;;;;;;12.83;4.80;;;23.20;8.00;;;;;;5063624;28;20481;-61
2023/01/01 12:36:06;;;;;;;7.83;4.63;;;23.00;8.30;;;;;;5058594;28;20457;-68
2023/01/01 12:38:48;;;;;;;6.80;3.93;;;22.90;8.60;;;;;;5057036;28;20491;-62
2023/01/01 12:41:27;;;;;;;9.93;5.80;;;22.80;9.10;;;;;;5058092;22;20502;-67
2023/01/01 12:44:05;;;;;;;8.37;4.80;;;22.60;9.40;;;;;;5039195;28;20470;-63
2023/01/01 12:46:49;;;;;;;6.33;3.77;;;22.60;9.60;;;;;;5039970;28;20453;-64
2023/01/01 12:49:26;;;;;;;6.97;3.70;;;22.50;10.00;;;;;;5042912;28;20462;-67
2023/01/01 12:52:13;;;;;;;7.93;4.30;;;22.40;10.30;;;;;;5020798;28;20509;-68
2023/01/01 12:55:23;;;;;;;8.13;4.70;;;22.30;10.60;;;;;;5022240;28;20458;-64